createdAt,value
2022-08-20T00:00:22.135Z,21.10
2022-08-20T00:02:56.014Z,21.10
2022-08-20T00:05:32.921Z,21.10
2022-08-20T00:08:04.254Z,21.10
2022-08-20T00:10:35.181Z,21.00
2022-08-20T00:13:04.607Z,21.00
2022-08-20T00:15:37.230Z,20.90
2022-08-20T00:18:09.341Z,20.80
2022-08-20T00:20:44.163Z,20.70
2022-08-20T00:23:13.328Z,20.60
2022-08-20T00:25:43.641Z,20.60
2022-08-20T00:28:13.361Z,20.50
2022-08-20T00:30:44.097Z,20.40
2022-08-20T00:33:18.157Z,20.40
2022-08-20T00:35:52.119Z,20.20
2022-08-20T00:38:21.386Z,20.10
2022-08-20T00:40:53.043Z,20.10
2022-08-20T00:43:37.655Z,20.10
2022-08-20T00:46:09.174Z,20.10
2022-08-20T00:48:43.676Z,20.10
2022-08-20T00:51:17.557Z,20.20
2022-08-20T00:53:46.945Z,20.00
2022-08-20T00:56:17.225Z,20.10
2022-08-20T00:58:47.285Z,20.10
2022-08-20T01:01:17.267Z,20.00
2022-08-20T01:03:51.124Z,19.90
2022-08-20T01:06:19.883Z,20.00
2022-08-20T01:08:54.672Z,19.90
2022-08-20T01:11:37.112Z,19.90
2022-08-20T01:14:23.774Z,19.80
2022-08-20T01:16:57.071Z,19.70
2022-08-20T01:19:32.251Z,19.80
2022-08-20T01:22:01.920Z,19.80
2022-08-20T01:24:36.355Z,19.90
2022-08-20T01:27:11.995Z,19.80
2022-08-20T01:29:43.648Z,19.80
2022-08-20T01:32:12.768Z,19.80
2022-08-20T01:34:41.485Z,19.60
2022-08-20T01:37:10.557Z,19.70
2022-08-20T01:39:39.656Z,19.80
2022-08-20T01:42:14.527Z,19.80
2022-08-20T01:44:45.190Z,19.80
2022-08-20T01:47:21.173Z,19.90
2022-08-20T01:50:01.092Z,19.90
2022-08-20T01:52:51.841Z,19.80
2022-08-20T01:55:21.363Z,19.70
2022-08-20T01:57:52.011Z,19.70
2022-08-20T02:00:22.482Z,19.80
2022-08-20T02:02:51.605Z,19.70
2022-08-20T02:05:21.093Z,19.80
2022-08-20T02:07:53.039Z,19.80
2022-08-20T02:10:23.244Z,19.80
2022-08-20T02:12:53.808Z,19.70
2022-08-20T02:15:34.728Z,19.80
2022-08-20T02:18:08.218Z,19.80
2022-08-20T02:20:38.155Z,19.80
2022-08-20T02:23:08.282Z,19.70
2022-08-20T02:25:40.895Z,19.80
2022-08-20T02:28:14.193Z,19.80
2022-08-20T02:30:48.492Z,19.70
2022-08-20T02:33:19.753Z,19.60
2022-08-20T02:35:56.697Z,19.60
2022-08-20T02:38:26.024Z,19.60
2022-08-20T02:40:55.092Z,19.70
2022-08-20T02:43:26.087Z,19.70
2022-08-20T02:45:56.083Z,19.70
2022-08-20T02:48:25.490Z,19.80
2022-08-20T02:50:56.995Z,19.70
2022-08-20T02:53:26.601Z,19.60
2022-08-20T02:55:55.565Z,19.70
2022-08-20T02:58:26.824Z,19.50
2022-08-20T03:00:56.864Z,19.50
2022-08-20T03:03:26.101Z,19.40
2022-08-20T03:05:59.714Z,19.40
2022-08-20T03:08:30.138Z,19.60
2022-08-20T03:10:59.763Z,19.50
2022-08-20T03:13:33.043Z,19.50
2022-08-20T03:16:03.927Z,19.40
2022-08-20T03:18:36.466Z,19.40
2022-08-20T03:21:07.215Z,19.50
2022-08-20T03:23:43.563Z,19.40
2022-08-20T03:26:17.155Z,19.50
2022-08-20T03:28:49.376Z,19.40
2022-08-20T03:31:18.511Z,19.40
2022-08-20T03:33:52.681Z,19.30
2022-08-20T03:36:27.722Z,19.30
2022-08-20T03:38:57.782Z,19.20
2022-08-20T03:41:27.058Z,19.20
2022-08-20T03:44:00.266Z,19.20
2022-08-20T03:46:29.452Z,19.20
2022-08-20T03:49:01.903Z,19.20
2022-08-20T03:51:31.568Z,19.10
2022-08-20T03:54:03.919Z,19.10
2022-08-20T03:56:35.658Z,19.20
2022-08-20T03:59:08.969Z,19.30
2022-08-20T04:01:46.150Z,19.30
2022-08-20T04:04:16.374Z,19.20
2022-08-20T04:06:47.883Z,19.30
2022-08-20T04:09:17.848Z,19.30
2022-08-20T04:11:46.842Z,19.30
2022-08-20T04:14:19.551Z,19.30
2022-08-20T04:16:49.900Z,19.40
2022-08-20T04:19:34.130Z,19.40
2022-08-20T04:22:04.309Z,19.50
2022-08-20T04:24:33.787Z,19.60
2022-08-20T04:27:05.428Z,19.60
2022-08-20T04:29:36.976Z,19.70
2022-08-20T04:32:07.821Z,19.70
2022-08-20T04:34:37.477Z,19.70
2022-08-20T04:37:17.313Z,19.70
2022-08-20T04:40:07.217Z,19.70
2022-08-20T04:42:37.563Z,19.80
2022-08-20T04:45:12.756Z,19.80
2022-08-20T04:47:42.096Z,19.70
2022-08-20T04:50:13.377Z,19.60
2022-08-20T04:52:42.788Z,19.50
2022-08-20T04:55:12.554Z,19.50
2022-08-20T04:57:41.766Z,19.40
2022-08-20T05:00:17.717Z,19.40
2022-08-20T05:02:46.916Z,19.40
2022-08-20T05:05:16.032Z,19.40
2022-08-20T05:07:47.404Z,19.40
2022-08-20T05:10:18.459Z,19.40
2022-08-20T05:12:53.493Z,19.40
2022-08-20T05:15:27.480Z,19.30
2022-08-20T05:18:00.894Z,19.30
2022-08-20T05:20:33.368Z,19.30
2022-08-20T05:23:03.924Z,19.40
2022-08-20T05:25:33.150Z,19.30
2022-08-20T05:28:04.855Z,19.30
2022-08-20T05:30:37.720Z,19.30
2022-08-20T05:33:08.965Z,19.30
2022-08-20T05:35:40.606Z,19.40
2022-08-20T05:38:11.991Z,19.40
2022-08-20T05:40:42.382Z,19.40
2022-08-20T05:43:11.878Z,19.40
2022-08-20T05:45:44.542Z,19.40
2022-08-20T05:48:16.123Z,19.40
2022-08-20T05:50:49.824Z,19.40
2022-08-20T05:53:19.573Z,19.40
2022-08-20T05:55:49.706Z,19.40
2022-08-20T05:58:21.293Z,19.30
2022-08-20T06:00:56.625Z,19.30
2022-08-20T06:03:42.827Z,19.30
2022-08-20T06:06:14.987Z,19.30
2022-08-20T06:09:04.036Z,19.30
2022-08-20T06:11:37.186Z,19.30
2022-08-20T06:14:06.899Z,19.20
2022-08-20T06:16:38.138Z,19.20
2022-08-20T06:19:11.379Z,19.20
2022-08-20T06:21:41.501Z,19.20
2022-08-20T06:24:10.791Z,19.10
2022-08-20T06:26:39.641Z,19.10
2022-08-20T06:29:08.759Z,19.20
2022-08-20T06:31:40.282Z,19.30
2022-08-20T06:34:09.518Z,19.30
2022-08-20T06:36:38.427Z,19.30
2022-08-20T06:39:07.458Z,19.40
2022-08-20T06:41:39.347Z,19.40
2022-08-20T06:44:11.006Z,19.40
2022-08-20T06:46:43.666Z,19.50
2022-08-20T06:49:12.824Z,19.60
2022-08-20T06:51:41.822Z,19.70
2022-08-20T06:54:10.771Z,19.70
2022-08-20T06:56:39.535Z,19.70
2022-08-20T06:59:12.145Z,19.70
2022-08-20T07:01:47.264Z,19.70
2022-08-20T07:04:16.355Z,19.60
2022-08-20T07:06:45.497Z,19.50
2022-08-20T07:09:14.830Z,19.60
2022-08-20T07:11:44.366Z,19.60
2022-08-20T07:14:19.415Z,19.60
2022-08-20T07:16:50.951Z,19.70
2022-08-20T07:19:20.650Z,19.70
2022-08-20T07:21:51.159Z,19.80
2022-08-20T07:24:23.050Z,19.80
2022-08-20T07:26:52.239Z,19.70
2022-08-20T07:29:47.865Z,19.60
2022-08-20T07:32:39.423Z,19.60
2022-08-20T07:35:14.353Z,19.60
2022-08-20T07:37:45.621Z,19.70
2022-08-20T07:40:21.284Z,19.70
2022-08-20T07:42:54.070Z,19.60
2022-08-20T07:45:24.444Z,19.60
2022-08-20T07:47:56.246Z,19.60
2022-08-20T07:50:27.875Z,19.60
2022-08-20T07:52:56.874Z,19.50
2022-08-20T07:55:25.705Z,19.50
2022-08-20T07:57:56.165Z,19.50
2022-08-20T08:00:25.386Z,19.60
2022-08-20T08:02:56.070Z,19.60
2022-08-20T08:05:25.079Z,19.70
2022-08-20T08:07:54.437Z,19.70
2022-08-20T08:10:27.465Z,19.70
2022-08-20T08:13:00.756Z,19.70
2022-08-20T08:15:34.716Z,19.90
2022-08-20T08:18:10.641Z,20.00
2022-08-20T08:20:46.695Z,20.00
2022-08-20T08:23:24.958Z,20.00
2022-08-20T08:26:00.690Z,20.00
2022-08-20T08:28:30.695Z,19.80
2022-08-20T08:31:00.124Z,19.90
2022-08-20T08:33:33.523Z,19.90
2022-08-20T08:36:04.459Z,20.00
2022-08-20T08:38:36.778Z,20.20
2022-08-20T08:41:17.228Z,20.50
2022-08-20T08:43:48.427Z,20.80
2022-08-20T08:46:21.780Z,21.20
2022-08-20T08:48:57.416Z,21.40
2022-08-20T08:51:31.574Z,21.40
2022-08-20T08:54:05.986Z,21.50
2022-08-20T08:56:36.757Z,21.60
2022-08-20T08:59:09.119Z,21.40
2022-08-20T09:01:54.323Z,21.50
2022-08-20T09:04:32.431Z,21.50
2022-08-20T09:07:03.314Z,21.50
2022-08-20T09:09:36.064Z,21.40
2022-08-20T09:12:07.606Z,21.40
2022-08-20T09:14:37.286Z,21.50
2022-08-20T09:17:06.779Z,21.50
2022-08-20T09:19:37.042Z,21.90
2022-08-20T09:22:09.656Z,21.90
2022-08-20T09:24:38.905Z,21.90
2022-08-20T09:27:08.253Z,21.90
2022-08-20T09:29:37.657Z,22.00
2022-08-20T09:32:09.262Z,22.10
2022-08-20T09:34:41.383Z,22.30
2022-08-20T09:37:10.303Z,22.60
2022-08-20T09:39:39.444Z,22.60
2022-08-20T09:42:09.506Z,22.50
2022-08-20T09:44:38.096Z,22.70
2022-08-20T09:47:07.450Z,22.90
2022-08-20T09:49:37.483Z,22.90
2022-08-20T09:52:09.056Z,22.80
2022-08-20T09:54:38.950Z,22.80
2022-08-20T09:57:13.999Z,22.70
2022-08-20T09:59:42.758Z,23.00
2022-08-20T10:02:11.486Z,23.10
2022-08-20T10:04:40.144Z,23.30
2022-08-20T10:07:12.327Z,23.00
2022-08-20T10:09:44.585Z,22.90
2022-08-20T10:12:13.569Z,23.00
2022-08-20T10:14:42.198Z,22.90
2022-08-20T10:17:11.086Z,22.90
2022-08-20T10:19:39.819Z,22.70
2022-08-20T10:22:08.681Z,22.40
2022-08-20T10:24:38.857Z,22.40
2022-08-20T10:27:08.116Z,22.40
2022-08-20T10:29:37.120Z,22.30
2022-08-20T10:32:14.318Z,22.30
2022-08-20T10:34:44.651Z,22.50
2022-08-20T10:37:17.074Z,22.70
2022-08-20T10:39:47.838Z,22.90
2022-08-20T10:42:16.993Z,23.00
2022-08-20T10:44:45.584Z,22.90
2022-08-20T10:47:21.055Z,22.70
2022-08-20T10:49:52.447Z,22.90
2022-08-20T10:52:22.054Z,23.20
2022-08-20T10:54:52.665Z,23.40
2022-08-20T10:57:24.150Z,23.70
2022-08-20T10:59:54.918Z,23.90
2022-08-20T11:02:24.167Z,23.60
2022-08-20T11:04:54.009Z,24.30
2022-08-20T11:07:50.695Z,24.50
2022-08-20T11:10:17.387Z,25.00
2022-08-20T11:12:46.408Z,24.60
2022-08-20T11:15:16.349Z,24.60
2022-08-20T11:17:46.066Z,24.90
2022-08-20T11:20:17.938Z,25.00
2022-08-20T11:22:46.980Z,25.50
2022-08-20T11:25:17.205Z,26.90
2022-08-20T11:27:48.399Z,28.00
2022-08-20T11:30:20.877Z,27.30
2022-08-20T11:32:49.837Z,27.20
2022-08-20T11:35:41.622Z,27.30
2022-08-20T11:38:07.864Z,27.20
2022-08-20T11:40:38.174Z,27.70
2022-08-20T11:43:15.610Z,28.40
2022-08-20T11:45:45.563Z,29.00
2022-08-20T11:48:14.326Z,29.80
2022-08-20T11:50:43.444Z,29.80
2022-08-20T11:53:12.323Z,29.60
2022-08-20T11:55:42.512Z,29.80
2022-08-20T11:58:14.257Z,30.10
2022-08-20T12:00:43.665Z,30.10
2022-08-20T12:03:12.683Z,30.20
2022-08-20T12:05:43.558Z,31.20
2022-08-20T12:08:25.461Z,31.00
2022-08-20T12:10:58.920Z,30.30
2022-08-20T12:13:39.679Z,30.50
2022-08-20T12:16:17.215Z,29.60
2022-08-20T12:18:46.487Z,28.90
2022-08-20T12:21:15.899Z,28.40
2022-08-20T12:23:44.838Z,28.30
2022-08-20T12:26:16.934Z,28.70
2022-08-20T12:28:45.623Z,29.10
2022-08-20T12:31:14.274Z,28.80
2022-08-20T12:33:42.767Z,28.10
2022-08-20T12:36:11.958Z,28.50
2022-08-20T12:38:40.570Z,28.20
2022-08-20T12:41:09.185Z,27.80
2022-08-20T12:43:39.642Z,27.80
2022-08-20T12:46:08.404Z,27.80
2022-08-20T12:48:53.623Z,28.10
2022-08-20T12:51:24.287Z,27.60
2022-08-20T12:53:53.110Z,27.10
2022-08-20T12:56:26.165Z,27.60
2022-08-20T12:59:03.137Z,27.80
2022-08-20T13:01:31.917Z,27.30
2022-08-20T13:04:00.618Z,27.40
2022-08-20T13:06:29.349Z,27.70
2022-08-20T13:08:57.890Z,27.90
2022-08-20T13:11:26.455Z,27.70
2022-08-20T13:13:56.825Z,27.30
2022-08-20T13:16:25.764Z,27.40
2022-08-20T13:18:55.600Z,27.40
2022-08-20T13:21:24.194Z,27.30
2022-08-20T13:23:52.859Z,27.50
2022-08-20T13:26:21.578Z,28.40
2022-08-20T13:28:50.431Z,29.70
2022-08-20T13:31:20.621Z,30.70
2022-08-20T13:33:50.553Z,30.80
2022-08-20T13:36:19.431Z,30.50
2022-08-20T13:38:48.216Z,30.10
2022-08-20T13:41:17.129Z,29.10
2022-08-20T13:43:45.800Z,28.20
2022-08-20T13:46:14.498Z,28.30
2022-08-20T13:48:44.937Z,28.70
2022-08-20T13:51:13.759Z,30.30
2022-08-20T13:53:47.852Z,31.10
2022-08-20T13:56:18.758Z,31.20
2022-08-20T13:58:47.501Z,31.10
2022-08-20T14:01:16.219Z,30.90
2022-08-20T14:03:48.073Z,30.60
2022-08-20T14:06:17.406Z,30.00
2022-08-20T14:08:46.031Z,29.20
2022-08-20T14:11:17.771Z,28.70
2022-08-20T14:13:47.056Z,28.60
2022-08-20T14:16:27.121Z,29.90
2022-08-20T14:19:01.969Z,30.70
2022-08-20T14:21:32.784Z,30.20
2022-08-20T14:24:03.946Z,31.10
2022-08-20T14:26:32.772Z,32.70
2022-08-20T14:29:06.261Z,33.60
2022-08-20T14:31:35.382Z,33.60
2022-08-20T14:34:05.613Z,33.30
2022-08-20T14:36:34.412Z,32.20
2022-08-20T14:39:03.069Z,32.00
2022-08-20T14:41:31.870Z,31.40
2022-08-20T14:44:01.068Z,30.80
2022-08-20T14:46:34.242Z,29.70
2022-08-20T14:49:04.723Z,28.70
2022-08-20T14:51:33.616Z,28.20
2022-08-20T14:54:02.194Z,27.90
2022-08-20T14:56:31.037Z,27.60
2022-08-20T14:58:59.848Z,27.70
2022-08-20T15:01:28.615Z,27.80
2022-08-20T15:03:57.675Z,27.80
2022-08-20T15:06:29.769Z,27.70
2022-08-20T15:08:58.745Z,27.50
2022-08-20T15:11:34.670Z,27.00
2022-08-20T15:14:11.188Z,26.70
2022-08-20T15:16:46.597Z,26.80
2022-08-20T15:19:22.582Z,26.60
2022-08-20T15:21:54.445Z,26.60
2022-08-20T15:24:25.481Z,27.40
2022-08-20T15:26:55.215Z,28.20
2022-08-20T15:29:23.989Z,28.20
2022-08-20T15:31:52.803Z,28.80
2022-08-20T15:34:21.534Z,29.00
2022-08-20T15:36:51.538Z,28.50
2022-08-20T15:39:20.321Z,28.00
2022-08-20T15:41:49.367Z,28.50
2022-08-20T15:44:18.210Z,30.10
2022-08-20T15:46:46.914Z,31.80
2022-08-20T15:49:17.293Z,32.50
2022-08-20T15:51:49.728Z,32.50
2022-08-20T15:54:24.804Z,32.90
2022-08-20T15:57:04.303Z,33.00
2022-08-20T15:59:53.526Z,32.60
2022-08-20T16:02:41.169Z,31.80
2022-08-20T16:05:25.758Z,30.10
2022-08-20T16:08:06.103Z,29.40
2022-08-20T16:10:47.023Z,29.40
2022-08-20T16:13:28.772Z,29.40
2022-08-20T16:16:01.154Z,29.10
2022-08-20T16:18:34.327Z,29.80
2022-08-20T16:21:08.020Z,31.20
2022-08-20T16:23:40.888Z,32.40
2022-08-20T16:26:25.275Z,33.80
2022-08-20T16:29:03.817Z,34.30
2022-08-20T16:31:41.784Z,34.20
2022-08-20T16:34:23.499Z,33.60
2022-08-20T16:37:06.441Z,34.40
2022-08-20T16:39:44.750Z,33.80
2022-08-20T16:42:25.782Z,33.70
2022-08-20T16:44:57.025Z,33.70
2022-08-20T16:47:30.341Z,33.80
2022-08-20T16:50:03.475Z,32.70
2022-08-20T16:52:32.390Z,32.50
2022-08-20T16:55:01.202Z,32.50
2022-08-20T16:57:31.849Z,32.60
2022-08-20T17:00:08.232Z,32.00
2022-08-20T17:02:37.163Z,31.90
2022-08-20T17:05:06.796Z,31.60
2022-08-20T17:07:46.039Z,31.00
2022-08-20T17:10:21.816Z,30.80
2022-08-20T17:13:00.029Z,30.70
2022-08-20T17:15:31.563Z,29.80
2022-08-20T17:18:19.764Z,28.90
2022-08-20T17:20:48.621Z,28.40
2022-08-20T17:23:19.373Z,28.20
2022-08-20T17:25:58.485Z,28.00
2022-08-20T17:28:35.036Z,28.00
2022-08-20T17:31:04.438Z,27.80
2022-08-20T17:33:36.960Z,27.50
2022-08-20T17:36:11.368Z,27.50
2022-08-20T17:38:47.210Z,27.10
2022-08-20T17:41:23.544Z,26.60
2022-08-20T17:44:02.471Z,26.40
2022-08-20T17:46:34.914Z,26.10
2022-08-20T17:49:09.906Z,26.00
2022-08-20T17:51:45.629Z,26.00
2022-08-20T17:54:17.490Z,26.00
2022-08-20T17:56:46.420Z,25.80
2022-08-20T17:59:33.568Z,25.70
2022-08-20T18:02:11.400Z,25.50
2022-08-20T18:04:40.688Z,25.30
2022-08-20T18:07:20.861Z,25.10
2022-08-20T18:10:08.276Z,24.90
2022-08-20T18:12:42.786Z,24.70
2022-08-20T18:15:22.368Z,24.50
2022-08-20T18:18:20.494Z,24.30
2022-08-20T18:21:15.609Z,24.10
2022-08-20T18:23:48.876Z,24.00
2022-08-20T18:26:23.089Z,23.70
2022-08-20T18:28:58.197Z,23.50
2022-08-20T18:31:33.156Z,23.60
2022-08-20T18:34:13.247Z,23.50
2022-08-20T18:36:42.570Z,23.30
2022-08-20T18:39:25.846Z,23.30
2022-08-20T18:42:01.467Z,23.10
2022-08-20T18:44:37.106Z,23.20
2022-08-20T18:47:22.227Z,23.10
2022-08-20T18:50:07.469Z,23.10
2022-08-20T18:52:48.694Z,23.00
2022-08-20T18:55:31.112Z,22.90
2022-08-20T18:58:02.777Z,22.80
2022-08-20T19:00:41.527Z,22.60
2022-08-20T19:03:24.411Z,22.50
2022-08-20T19:06:10.701Z,22.40
2022-08-20T19:08:49.000Z,22.30
2022-08-20T19:11:53.662Z,22.10
2022-08-20T19:14:43.025Z,22.00
2022-08-20T19:17:18.014Z,21.80
2022-08-20T19:19:59.737Z,21.60
2022-08-20T19:22:29.173Z,21.50
2022-08-20T19:25:01.185Z,21.40
2022-08-20T19:27:31.258Z,21.40
2022-08-20T19:29:59.909Z,21.40
2022-08-20T19:32:31.230Z,21.50
2022-08-20T19:35:05.073Z,21.70
2022-08-20T19:37:49.670Z,21.70
2022-08-20T19:40:24.472Z,21.60
2022-08-20T19:42:59.872Z,21.60
2022-08-20T19:45:33.224Z,21.50
2022-08-20T19:48:30.634Z,21.50
2022-08-20T19:51:15.323Z,21.30
2022-08-20T19:53:49.994Z,21.30
2022-08-20T19:56:21.592Z,21.30
2022-08-20T19:59:00.363Z,21.20
2022-08-20T20:01:29.957Z,21.20
2022-08-20T20:04:01.202Z,21.20
2022-08-20T20:06:36.643Z,21.10
2022-08-20T20:09:09.143Z,21.10
2022-08-20T20:11:46.462Z,21.00
2022-08-20T20:14:28.892Z,20.80
2022-08-20T20:16:59.032Z,20.70
2022-08-20T20:19:28.966Z,20.70
2022-08-20T20:22:19.248Z,20.70
2022-08-20T20:24:51.459Z,20.70
2022-08-20T20:27:26.937Z,20.50
2022-08-20T20:30:01.589Z,20.50
2022-08-20T20:32:33.773Z,20.50
2022-08-20T20:35:06.119Z,20.40
2022-08-20T20:37:49.154Z,20.30
2022-08-20T20:40:25.975Z,20.30
2022-08-20T20:43:07.547Z,20.20
2022-08-20T20:45:38.964Z,20.10
2022-08-20T20:48:19.478Z,20.00
2022-08-20T20:50:49.790Z,19.90
2022-08-20T20:53:53.252Z,19.70
2022-08-20T20:56:40.227Z,19.50
2022-08-20T20:59:10.854Z,19.40
2022-08-20T21:01:48.220Z,19.50
2022-08-20T21:04:20.448Z,19.40
2022-08-20T21:06:50.087Z,19.50
2022-08-20T21:09:20.602Z,19.40
2022-08-20T21:11:49.990Z,19.30
2022-08-20T21:14:19.575Z,19.10
2022-08-20T21:16:49.265Z,18.80
2022-08-20T21:19:19.514Z,18.70
2022-08-20T21:21:48.552Z,18.50
2022-08-20T21:24:17.912Z,18.40
2022-08-20T21:26:49.336Z,18.20
2022-08-20T21:29:24.193Z,18.30
2022-08-20T21:31:53.807Z,18.20
2022-08-20T21:34:23.598Z,18.10
2022-08-20T21:36:53.176Z,17.90
2022-08-20T21:39:23.851Z,17.80
2022-08-20T21:41:57.126Z,17.90
2022-08-20T21:44:31.672Z,17.70
2022-08-20T21:47:05.301Z,17.80
2022-08-20T21:49:34.309Z,17.80
2022-08-20T21:52:03.692Z,17.70
2022-08-20T21:54:38.916Z,17.60
2022-08-20T21:57:15.289Z,17.60
2022-08-20T21:59:44.219Z,17.60
2022-08-20T22:02:14.018Z,17.50
2022-08-20T22:04:43.293Z,17.30
2022-08-20T22:07:12.411Z,17.20
2022-08-20T22:09:44.115Z,17.10
2022-08-20T22:12:18.943Z,17.10
2022-08-20T22:14:48.523Z,17.10
2022-08-20T22:17:19.390Z,17.10
2022-08-20T22:19:52.418Z,17.10
2022-08-20T22:22:23.617Z,17.10
2022-08-20T22:24:52.415Z,16.90
2022-08-20T22:27:22.422Z,16.70
2022-08-20T22:29:51.096Z,16.50
2022-08-20T22:32:20.386Z,16.50
2022-08-20T22:35:02.525Z,16.40
2022-08-20T22:37:35.153Z,16.30
2022-08-20T22:40:04.150Z,16.10
2022-08-20T22:42:34.325Z,15.90
2022-08-20T22:45:03.004Z,15.80
2022-08-20T22:47:31.696Z,15.70
2022-08-20T22:50:00.452Z,15.60
2022-08-20T22:52:29.221Z,15.70
2022-08-20T22:54:58.067Z,15.60
2022-08-20T22:57:28.095Z,15.50
2022-08-20T22:59:58.516Z,15.40
2022-08-20T23:02:27.197Z,15.40
2022-08-20T23:04:55.771Z,15.50
2022-08-20T23:07:24.393Z,15.40
2022-08-20T23:09:53.060Z,15.40
2022-08-20T23:12:21.725Z,15.50
2022-08-20T23:14:50.701Z,15.60
2022-08-20T23:17:20.930Z,15.70
2022-08-20T23:19:50.924Z,15.80
2022-08-20T23:22:21.032Z,15.80
2022-08-20T23:24:49.542Z,15.90
2022-08-20T23:27:21.096Z,16.00
2022-08-20T23:29:49.603Z,16.10
2022-08-20T23:32:18.206Z,16.10
2022-08-20T23:34:48.106Z,16.20
2022-08-20T23:37:20.148Z,16.30
2022-08-20T23:39:49.925Z,16.30
2022-08-20T23:42:18.860Z,16.20
2022-08-20T23:44:47.518Z,16.20
2022-08-20T23:47:21.669Z,16.20
2022-08-20T23:49:52.093Z,16.20
2022-08-20T23:52:20.818Z,16.10
2022-08-20T23:54:49.331Z,16.10
2022-08-20T23:57:20.944Z,16.10
2022-08-20T23:59:49.870Z,16.00
